sensor_id;sensor_type;location;lat;lon;timestamp;P1;durP1;ratioP1;P2;durP2;ratioP2
33148;SDS011;19506;51.040;3.856;2023-02-15T00:01:08;25.13;;;14.85;;
33148;SDS011;19506;51.040;3.856;2023-02-15T00:03:34;29.33;;;15.82;;
33148;SDS011;19506;51.040;3.856;2023-02-15T00:06:00;25.10;;;15.25;;
33148;SDS011;19506;51.040;3.856;2023-02-15T00:08:27;30.40;;;16.35;;
33148;SDS011;19506;51.040;3.856;2023-02-15T00:10:52;24.15;;;13.95;;
33148;SDS011;19506;51.040;3.856;2023-02-15T00:13:18;23.85;;;14.55;;
33148;SDS011;19506;51.040;3.856;2023-02-15T00:15:44;25.27;;;14.30;;
33148;SDS011;19506;51.040;3.856;2023-02-15T00:18:09;26.30;;;14.65;;
33148;SDS011;19506;51.040;3.856;2023-02-15T00:20:35;24.92;;;14.02;;
33148;SDS011;19506;51.040;3.856;2023-02-15T00:23:01;28.10;;;13.57;;
33148;SDS011;19506;51.040;3.856;2023-02-15T00:25:26;24.38;;;14.32;;
33148;SDS011;19506;51.040;3.856;2023-02-15T00:27:52;28.15;;;15.65;;
33148;SDS011;19506;51.040;3.856;2023-02-15T00:30:17;24.17;;;15.02;;
33148;SDS011;19506;51.040;3.856;2023-02-15T00:32:43;31.63;;;15.23;;
33148;SDS011;19506;51.040;3.856;2023-02-15T00:35:09;24.52;;;14.88;;
33148;SDS011;19506;51.040;3.856;2023-02-15T00:37:35;22.05;;;14.50;;
33148;SDS011;19506;51.040;3.856;2023-02-15T00:40:01;26.73;;;15.02;;
33148;SDS011;19506;51.040;3.856;2023-02-15T00:42:27;24.55;;;15.07;;
33148;SDS011;19506;51.040;3.856;2023-02-15T00:44:52;25.58;;;14.90;;
33148;SDS011;19506;51.040;3.856;2023-02-15T00:47:18;24.90;;;15.40;;
33148;SDS011;19506;51.040;3.856;2023-02-15T00:49:44;22.35;;;14.60;;
33148;SDS011;19506;51.040;3.856;2023-02-15T00:52:09;24.30;;;14.75;;
33148;SDS011;19506;51.040;3.856;2023-02-15T00:54:35;27.67;;;16.08;;
33148;SDS011;19506;51.040;3.856;2023-02-15T00:57:01;22.38;;;15.23;;
33148;SDS011;19506;51.040;3.856;2023-02-15T00:59:26;22.83;;;14.50;;
33148;SDS011;19506;51.040;3.856;2023-02-15T01:01:52;25.92;;;16.58;;
33148;SDS011;19506;51.040;3.856;2023-02-15T01:04:18;30.17;;;16.73;;
33148;SDS011;19506;51.040;3.856;2023-02-15T01:06:43;23.25;;;14.98;;
33148;SDS011;19506;51.040;3.856;2023-02-15T01:09:09;25.45;;;15.93;;
33148;SDS011;19506;51.040;3.856;2023-02-15T01:11:34;25.52;;;14.95;;
33148;SDS011;19506;51.040;3.856;2023-02-15T01:14:00;24.27;;;15.18;;
33148;SDS011;19506;51.040;3.856;2023-02-15T01:16:28;30.45;;;15.70;;
33148;SDS011;19506;51.040;3.856;2023-02-15T01:18:54;23.05;;;14.82;;
33148;SDS011;19506;51.040;3.856;2023-02-15T01:21:21;28.45;;;15.15;;
33148;SDS011;19506;51.040;3.856;2023-02-15T01:23:48;21.42;;;14.95;;
33148;SDS011;19506;51.040;3.856;2023-02-15T01:28:40;24.98;;;14.90;;
33148;SDS011;19506;51.040;3.856;2023-02-15T01:31:10;29.35;;;15.82;;
33148;SDS011;19506;51.040;3.856;2023-02-15T01:33:38;24.48;;;16.35;;
33148;SDS011;19506;51.040;3.856;2023-02-15T01:36:04;28.38;;;14.27;;
33148;SDS011;19506;51.040;3.856;2023-02-15T01:38:30;28.23;;;16.73;;
33148;SDS011;19506;51.040;3.856;2023-02-15T01:43:42;23.55;;;14.38;;
33148;SDS011;19506;51.040;3.856;2023-02-15T01:46:10;30.83;;;15.15;;
33148;SDS011;19506;51.040;3.856;2023-02-15T01:48:46;24.63;;;15.82;;
33148;SDS011;19506;51.040;3.856;2023-02-15T01:51:17;27.52;;;14.85;;
33148;SDS011;19506;51.040;3.856;2023-02-15T01:54:09;24.38;;;16.15;;
33148;SDS011;19506;51.040;3.856;2023-02-15T01:56:38;27.98;;;15.63;;
33148;SDS011;19506;51.040;3.856;2023-02-15T01:59:07;27.05;;;16.00;;
33148;SDS011;19506;51.040;3.856;2023-02-15T02:01:37;25.50;;;16.25;;
33148;SDS011;19506;51.040;3.856;2023-02-15T02:04:15;25.45;;;16.45;;
33148;SDS011;19506;51.040;3.856;2023-02-15T02:09:16;26.52;;;15.70;;
33148;SDS011;19506;51.040;3.856;2023-02-15T02:11:42;24.85;;;16.75;;
33148;SDS011;19506;51.040;3.856;2023-02-15T02:14:11;27.67;;;16.45;;
33148;SDS011;19506;51.040;3.856;2023-02-15T02:22:15;26.98;;;15.23;;
33148;SDS011;19506;51.040;3.856;2023-02-15T02:33:17;24.00;;;15.75;;
33148;SDS011;19506;51.040;3.856;2023-02-15T02:36:24;21.60;;;14.43;;
33148;SDS011;19506;51.040;3.856;2023-02-15T02:42:06;27.88;;;15.30;;
33148;SDS011;19506;51.040;3.856;2023-02-15T02:50:05;24.38;;;14.73;;
33148;SDS011;19506;51.040;3.856;2023-02-15T02:55:05;24.95;;;15.77;;
33148;SDS011;19506;51.040;3.856;2023-02-15T02:57:39;25.58;;;16.10;;
33148;SDS011;19506;51.040;3.856;2023-02-15T03:00:09;23.52;;;15.48;;
33148;SDS011;19506;51.040;3.856;2023-02-15T03:02:37;27.83;;;16.58;;
33148;SDS011;19506;51.040;3.856;2023-02-15T03:05:08;25.23;;;14.55;;
33148;SDS011;19506;51.040;3.856;2023-02-15T03:07:38;23.45;;;15.43;;
33148;SDS011;19506;51.040;3.856;2023-02-15T03:10:06;23.13;;;15.93;;
33148;SDS011;19506;51.040;3.856;2023-02-15T03:12:34;25.55;;;15.63;;
33148;SDS011;19506;51.040;3.856;2023-02-15T03:17:40;23.90;;;16.35;;
33148;SDS011;19506;51.040;3.856;2023-02-15T03:20:11;22.00;;;14.95;;
33148;SDS011;19506;51.040;3.856;2023-02-15T03:22:48;24.38;;;15.52;;
33148;SDS011;19506;51.040;3.856;2023-02-15T03:25:30;22.27;;;15.32;;
33148;SDS011;19506;51.040;3.856;2023-02-15T03:27:59;25.35;;;16.02;;
33148;SDS011;19506;51.040;3.856;2023-02-15T03:30:28;25.27;;;14.60;;
33148;SDS011;19506;51.040;3.856;2023-02-15T03:32:56;22.27;;;14.35;;
33148;SDS011;19506;51.040;3.856;2023-02-15T03:35:25;24.40;;;15.70;;
33148;SDS011;19506;51.040;3.856;2023-02-15T03:37:56;23.20;;;14.38;;
33148;SDS011;19506;51.040;3.856;2023-02-15T03:40:32;26.13;;;15.88;;
33148;SDS011;19506;51.040;3.856;2023-02-15T03:43:44;21.08;;;13.85;;
33148;SDS011;19506;51.040;3.856;2023-02-15T03:49:03;25.00;;;15.75;;
33148;SDS011;19506;51.040;3.856;2023-02-15T03:51:52;24.23;;;15.60;;
33148;SDS011;19506;51.040;3.856;2023-02-15T03:54:22;22.90;;;14.60;;
33148;SDS011;19506;51.040;3.856;2023-02-15T03:57:13;22.48;;;14.18;;
33148;SDS011;19506;51.040;3.856;2023-02-15T04:00:21;25.80;;;16.13;;
33148;SDS011;19506;51.040;3.856;2023-02-15T04:05:39;24.65;;;14.95;;
33148;SDS011;19506;51.040;3.856;2023-02-15T04:08:06;25.58;;;15.70;;
33148;SDS011;19506;51.040;3.856;2023-02-15T04:10:32;24.65;;;15.02;;
33148;SDS011;19506;51.040;3.856;2023-02-15T04:13:16;21.95;;;14.07;;
33148;SDS011;19506;51.040;3.856;2023-02-15T04:18:26;21.63;;;15.23;;
33148;SDS011;19506;51.040;3.856;2023-02-15T04:21:10;22.52;;;14.35;;
33148;SDS011;19506;51.040;3.856;2023-02-15T04:23:54;20.63;;;13.73;;
33148;SDS011;19506;51.040;3.856;2023-02-15T04:26:38;23.08;;;14.98;;
33148;SDS011;19506;51.040;3.856;2023-02-15T04:31:29;21.17;;;13.60;;
33148;SDS011;19506;51.040;3.856;2023-02-15T04:36:20;23.08;;;13.82;;
33148;SDS011;19506;51.040;3.856;2023-02-15T04:41:11;21.20;;;13.93;;
33148;SDS011;19506;51.040;3.856;2023-02-15T04:43:38;22.70;;;13.95;;
33148;SDS011;19506;51.040;3.856;2023-02-15T04:48:29;19.13;;;12.90;;
33148;SDS011;19506;51.040;3.856;2023-02-15T04:50:55;22.70;;;14.32;;
33148;SDS011;19506;51.040;3.856;2023-02-15T04:55:46;21.33;;;13.60;;
33148;SDS011;19506;51.040;3.856;2023-02-15T04:58:12;23.55;;;14.40;;
33148;SDS011;19506;51.040;3.856;2023-02-15T05:00:38;21.70;;;13.73;;
33148;SDS011;19506;51.040;3.856;2023-02-15T05:05:29;20.10;;;13.82;;
33148;SDS011;19506;51.040;3.856;2023-02-15T05:07:54;22.80;;;13.50;;
33148;SDS011;19506;51.040;3.856;2023-02-15T05:10:20;21.33;;;13.38;;
33148;SDS011;19506;51.040;3.856;2023-02-15T05:12:46;20.98;;;13.52;;
33148;SDS011;19506;51.040;3.856;2023-02-15T05:15:12;21.13;;;13.23;;
33148;SDS011;19506;51.040;3.856;2023-02-15T05:17:37;19.95;;;13.32;;
33148;SDS011;19506;51.040;3.856;2023-02-15T05:20:03;17.48;;;12.07;;
33148;SDS011;19506;51.040;3.856;2023-02-15T05:22:29;20.13;;;12.43;;
33148;SDS011;19506;51.040;3.856;2023-02-15T05:27:39;20.30;;;12.57;;
33148;SDS011;19506;51.040;3.856;2023-02-15T05:30:23;22.10;;;13.48;;
33148;SDS011;19506;51.040;3.856;2023-02-15T05:35:15;21.15;;;12.55;;
33148;SDS011;19506;51.040;3.856;2023-02-15T05:37:41;21.25;;;13.35;;
33148;SDS011;19506;51.040;3.856;2023-02-15T05:42:33;20.27;;;11.90;;
33148;SDS011;19506;51.040;3.856;2023-02-15T05:47:28;23.95;;;13.27;;
33148;SDS011;19506;51.040;3.856;2023-02-15T05:52:19;19.27;;;12.45;;
33148;SDS011;19506;51.040;3.856;2023-02-15T05:57:11;19.95;;;12.38;;
33148;SDS011;19506;51.040;3.856;2023-02-15T06:02:02;20.60;;;12.60;;
33148;SDS011;19506;51.040;3.856;2023-02-15T06:04:27;22.05;;;15.10;;
33148;SDS011;19506;51.040;3.856;2023-02-15T06:09:18;23.15;;;13.68;;
33148;SDS011;19506;51.040;3.856;2023-02-15T06:11:44;24.45;;;14.30;;
33148;SDS011;19506;51.040;3.856;2023-02-15T06:14:10;21.83;;;13.27;;
33148;SDS011;19506;51.040;3.856;2023-02-15T06:19:02;22.95;;;12.85;;
33148;SDS011;19506;51.040;3.856;2023-02-15T06:21:29;20.08;;;12.85;;
33148;SDS011;19506;51.040;3.856;2023-02-15T06:23:55;21.02;;;12.70;;
33148;SDS011;19506;51.040;3.856;2023-02-15T06:28:47;19.02;;;12.35;;
33148;SDS011;19506;51.040;3.856;2023-02-15T06:33:38;24.13;;;13.18;;
33148;SDS011;19506;51.040;3.856;2023-02-15T06:36:04;22.20;;;14.00;;
33148;SDS011;19506;51.040;3.856;2023-02-15T06:40:55;30.17;;;18.45;;
33148;SDS011;19506;51.040;3.856;2023-02-15T06:45:46;62.42;;;35.47;;
33148;SDS011;19506;51.040;3.856;2023-02-15T06:48:12;86.97;;;47.65;;
33148;SDS011;19506;51.040;3.856;2023-02-15T06:50:38;89.05;;;51.63;;
33148;SDS011;19506;51.040;3.856;2023-02-15T06:53:04;95.72;;;54.20;;
33148;SDS011;19506;51.040;3.856;2023-02-15T06:55:29;104.72;;;62.05;;
33148;SDS011;19506;51.040;3.856;2023-02-15T07:00:21;130.70;;;73.45;;
33148;SDS011;19506;51.040;3.856;2023-02-15T07:02:48;137.32;;;75.93;;
33148;SDS011;19506;51.040;3.856;2023-02-15T07:05:23;135.80;;;78.13;;
33148;SDS011;19506;51.040;3.856;2023-02-15T07:07:56;152.20;;;83.35;;
33148;SDS011;19506;51.040;3.856;2023-02-15T07:10:25;158.55;;;88.25;;
33148;SDS011;19506;51.040;3.856;2023-02-15T07:12:51;158.88;;;90.90;;
33148;SDS011;19506;51.040;3.856;2023-02-15T07:17:45;167.35;;;91.53;;
33148;SDS011;19506;51.040;3.856;2023-02-15T07:20:13;167.95;;;88.95;;
33148;SDS011;19506;51.040;3.856;2023-02-15T07:22:41;155.25;;;85.05;;
33148;SDS011;19506;51.040;3.856;2023-02-15T07:25:08;155.88;;;83.95;;
33148;SDS011;19506;51.040;3.856;2023-02-15T07:27:34;140.63;;;79.15;;
33148;SDS011;19506;51.040;3.856;2023-02-15T07:32:29;146.65;;;78.05;;
33148;SDS011;19506;51.040;3.856;2023-02-15T07:34:56;137.13;;;77.38;;
33148;SDS011;19506;51.040;3.856;2023-02-15T07:37:22;142.10;;;75.55;;
33148;SDS011;19506;51.040;3.856;2023-02-15T07:39:48;129.13;;;72.85;;
33148;SDS011;19506;51.040;3.856;2023-02-15T07:44:39;141.45;;;75.95;;
33148;SDS011;19506;51.040;3.856;2023-02-15T07:47:05;136.75;;;72.97;;
33148;SDS011;19506;51.040;3.856;2023-02-15T07:49:31;137.50;;;74.00;;
33148;SDS011;19506;51.040;3.856;2023-02-15T07:51:56;129.00;;;70.35;;
33148;SDS011;19506;51.040;3.856;2023-02-15T07:56:48;119.60;;;64.75;;
33148;SDS011;19506;51.040;3.856;2023-02-15T08:01:39;123.80;;;62.28;;
33148;SDS011;19506;51.040;3.856;2023-02-15T08:04:06;116.80;;;61.13;;
33148;SDS011;19506;51.040;3.856;2023-02-15T08:06:34;104.47;;;56.78;;
33148;SDS011;19506;51.040;3.856;2023-02-15T08:09:00;114.28;;;58.55;;
33148;SDS011;19506;51.040;3.856;2023-02-15T08:11:31;98.10;;;53.42;;
33148;SDS011;19506;51.040;3.856;2023-02-15T08:21:45;84.65;;;48.65;;
33148;SDS011;19506;51.040;3.856;2023-02-15T08:24:25;87.03;;;43.33;;
33148;SDS011;19506;51.040;3.856;2023-02-15T08:26:53;82.35;;;41.00;;
33148;SDS011;19506;51.040;3.856;2023-02-15T08:29:20;69.72;;;37.75;;
33148;SDS011;19506;51.040;3.856;2023-02-15T08:31:48;72.45;;;37.85;;
33148;SDS011;19506;51.040;3.856;2023-02-15T08:34:18;61.28;;;37.47;;
33148;SDS011;19506;51.040;3.856;2023-02-15T08:36:45;68.10;;;36.22;;
33148;SDS011;19506;51.040;3.856;2023-02-15T08:39:11;67.47;;;35.72;;
33148;SDS011;19506;51.040;3.856;2023-02-15T08:41:38;63.65;;;34.25;;
33148;SDS011;19506;51.040;3.856;2023-02-15T08:44:07;58.25;;;32.15;;
33148;SDS011;19506;51.040;3.856;2023-02-15T08:46:34;59.92;;;33.40;;
33148;SDS011;19506;51.040;3.856;2023-02-15T08:49:02;65.20;;;33.47;;
33148;SDS011;19506;51.040;3.856;2023-02-15T08:51:29;60.78;;;32.25;;
33148;SDS011;19506;51.040;3.856;2023-02-15T08:53:57;56.67;;;32.63;;
33148;SDS011;19506;51.040;3.856;2023-02-15T08:56:26;55.67;;;29.88;;
33148;SDS011;19506;51.040;3.856;2023-02-15T08:58:53;58.83;;;32.13;;
33148;SDS011;19506;51.040;3.856;2023-02-15T09:01:21;51.38;;;30.25;;
33148;SDS011;19506;51.040;3.856;2023-02-15T09:03:50;60.65;;;29.95;;
33148;SDS011;19506;51.040;3.856;2023-02-15T09:06:19;49.80;;;28.60;;
33148;SDS011;19506;51.040;3.856;2023-02-15T09:08:46;51.97;;;28.02;;
33148;SDS011;19506;51.040;3.856;2023-02-15T09:13:38;47.10;;;26.88;;
33148;SDS011;19506;51.040;3.856;2023-02-15T09:16:05;52.65;;;27.23;;
33148;SDS011;19506;51.040;3.856;2023-02-15T09:18:34;42.72;;;25.00;;
33148;SDS011;19506;51.040;3.856;2023-02-15T09:21:06;48.58;;;26.70;;
33148;SDS011;19506;51.040;3.856;2023-02-15T09:23:39;54.28;;;27.20;;
33148;SDS011;19506;51.040;3.856;2023-02-15T09:26:07;53.35;;;26.33;;
33148;SDS011;19506;51.040;3.856;2023-02-15T09:28:37;48.70;;;25.50;;
33148;SDS011;19506;51.040;3.856;2023-02-15T09:33:32;44.08;;;24.75;;
33148;SDS011;19506;51.040;3.856;2023-02-15T09:35:59;45.38;;;25.52;;
33148;SDS011;19506;51.040;3.856;2023-02-15T09:38:26;41.70;;;23.63;;
33148;SDS011;19506;51.040;3.856;2023-02-15T09:44:18;42.38;;;24.10;;
33148;SDS011;19506;51.040;3.856;2023-02-15T09:46:41;42.97;;;22.65;;
33148;SDS011;19506;51.040;3.856;2023-02-15T09:54:52;41.47;;;23.38;;
33148;SDS011;19506;51.040;3.856;2023-02-15T10:00:28;43.22;;;23.02;;
33148;SDS011;19506;51.040;3.856;2023-02-15T10:11:17;32.67;;;19.35;;
33148;SDS011;19506;51.040;3.856;2023-02-15T10:17:19;39.00;;;20.63;;
33148;SDS011;19506;51.040;3.856;2023-02-15T10:22:37;35.60;;;20.10;;
33148;SDS011;19506;51.040;3.856;2023-02-15T10:27:54;35.40;;;19.80;;
33148;SDS011;19506;51.040;3.856;2023-02-15T10:30:27;33.58;;;19.10;;
33148;SDS011;19506;51.040;3.856;2023-02-15T10:33:35;32.67;;;19.00;;
33148;SDS011;19506;51.040;3.856;2023-02-15T10:39:08;33.20;;;18.80;;
33148;SDS011;19506;51.040;3.856;2023-02-15T10:44:51;34.65;;;19.38;;
33148;SDS011;19506;51.040;3.856;2023-02-15T10:58:23;30.08;;;17.58;;
33148;SDS011;19506;51.040;3.856;2023-02-15T11:06:49;33.72;;;16.38;;
33148;SDS011;19506;51.040;3.856;2023-02-15T11:09:18;24.15;;;15.02;;
33148;SDS011;19506;51.040;3.856;2023-02-15T11:11:50;28.52;;;15.27;;
33148;SDS011;19506;51.040;3.856;2023-02-15T11:14:33;26.63;;;15.80;;
33148;SDS011;19506;51.040;3.856;2023-02-15T11:17:50;33.05;;;17.88;;
33148;SDS011;19506;51.040;3.856;2023-02-15T11:20:51;28.02;;;15.32;;
33148;SDS011;19506;51.040;3.856;2023-02-15T11:23:19;23.13;;;14.98;;
33148;SDS011;19506;51.040;3.856;2023-02-15T11:25:47;22.85;;;14.95;;
33148;SDS011;19506;51.040;3.856;2023-02-15T11:28:33;25.92;;;15.05;;
33148;SDS011;19506;51.040;3.856;2023-02-15T11:31:04;23.40;;;14.27;;
33148;SDS011;19506;51.040;3.856;2023-02-15T11:34:04;27.10;;;14.93;;
33148;SDS011;19506;51.040;3.856;2023-02-15T11:36:37;23.60;;;15.68;;
33148;SDS011;19506;51.040;3.856;2023-02-15T11:39:10;26.88;;;14.25;;
33148;SDS011;19506;51.040;3.856;2023-02-15T11:41:41;26.85;;;14.52;;
33148;SDS011;19506;51.040;3.856;2023-02-15T11:46:43;22.60;;;13.50;;
33148;SDS011;19506;51.040;3.856;2023-02-15T11:51:47;22.48;;;13.63;;
33148;SDS011;19506;51.040;3.856;2023-02-15T11:54:15;22.70;;;14.38;;
33148;SDS011;19506;51.040;3.856;2023-02-15T11:56:44;25.35;;;14.38;;
33148;SDS011;19506;51.040;3.856;2023-02-15T11:59:11;30.90;;;16.83;;
33148;SDS011;19506;51.040;3.856;2023-02-15T12:01:44;32.40;;;17.42;;
33148;SDS011;19506;51.040;3.856;2023-02-15T12:04:16;30.80;;;16.38;;
33148;SDS011;19506;51.040;3.856;2023-02-15T12:07:02;29.23;;;16.95;;
33148;SDS011;19506;51.040;3.856;2023-02-15T12:09:52;31.60;;;15.70;;
33148;SDS011;19506;51.040;3.856;2023-02-15T12:12:39;41.25;;;17.88;;
33148;SDS011;19506;51.040;3.856;2023-02-15T12:15:06;34.45;;;16.23;;
33148;SDS011;19506;51.040;3.856;2023-02-15T12:17:40;43.35;;;16.67;;
33148;SDS011;19506;51.040;3.856;2023-02-15T12:25:29;27.35;;;15.77;;
33148;SDS011;19506;51.040;3.856;2023-02-15T12:28:02;33.78;;;15.68;;
33148;SDS011;19506;51.040;3.856;2023-02-15T12:30:34;27.83;;;13.68;;
33148;SDS011;19506;51.040;3.856;2023-02-15T12:33:17;29.50;;;14.95;;
33148;SDS011;19506;51.040;3.856;2023-02-15T12:35:56;27.17;;;15.88;;
33148;SDS011;19506;51.040;3.856;2023-02-15T12:38:26;31.65;;;14.68;;
33148;SDS011;19506;51.040;3.856;2023-02-15T12:41:00;27.52;;;15.63;;
33148;SDS011;19506;51.040;3.856;2023-02-15T12:43:33;33.80;;;14.93;;
33148;SDS011;19506;51.040;3.856;2023-02-15T12:49:17;30.92;;;15.60;;
33148;SDS011;19506;51.040;3.856;2023-02-15T12:57:27;25.70;;;13.90;;
33148;SDS011;19506;51.040;3.856;2023-02-15T13:02:30;29.05;;;13.73;;
33148;SDS011;19506;51.040;3.856;2023-02-15T13:05:04;31.95;;;14.00;;
33148;SDS011;19506;51.040;3.856;2023-02-15T13:07:44;25.77;;;13.75;;
33148;SDS011;19506;51.040;3.856;2023-02-15T13:13:00;26.55;;;14.23;;
33148;SDS011;19506;51.040;3.856;2023-02-15T13:17:59;33.15;;;13.23;;
33148;SDS011;19506;51.040;3.856;2023-02-15T13:20:27;24.25;;;12.93;;
33148;SDS011;19506;51.040;3.856;2023-02-15T13:22:56;26.08;;;13.52;;
33148;SDS011;19506;51.040;3.856;2023-02-15T13:25:25;21.95;;;11.35;;
33148;SDS011;19506;51.040;3.856;2023-02-15T13:27:56;28.60;;;13.43;;
33148;SDS011;19506;51.040;3.856;2023-02-15T13:30:33;31.67;;;13.00;;
33148;SDS011;19506;51.040;3.856;2023-02-15T13:33:10;22.23;;;12.65;;
33148;SDS011;19506;51.040;3.856;2023-02-15T13:38:20;21.48;;;11.93;;
33148;SDS011;19506;51.040;3.856;2023-02-15T13:41:12;25.52;;;11.88;;
33148;SDS011;19506;51.040;3.856;2023-02-15T13:49:08;19.02;;;10.73;;
33148;SDS011;19506;51.040;3.856;2023-02-15T13:57:37;20.13;;;10.63;;
33148;SDS011;19506;51.040;3.856;2023-02-15T14:06:14;20.15;;;10.40;;
33148;SDS011;19506;51.040;3.856;2023-02-15T14:11:26;19.17;;;10.23;;
33148;SDS011;19506;51.040;3.856;2023-02-15T14:14:25;22.42;;;11.10;;
33148;SDS011;19506;51.040;3.856;2023-02-15T14:19:32;18.58;;;10.05;;
33148;SDS011;19506;51.040;3.856;2023-02-15T14:30:30;17.65;;;8.95;;
33148;SDS011;19506;51.040;3.856;2023-02-15T14:33:00;20.33;;;9.85;;
33148;SDS011;19506;51.040;3.856;2023-02-15T14:35:31;20.60;;;9.73;;
33148;SDS011;19506;51.040;3.856;2023-02-15T14:40:57;18.40;;;9.95;;
33148;SDS011;19506;51.040;3.856;2023-02-15T14:46:41;16.20;;;8.90;;
33148;SDS011;19506;51.040;3.856;2023-02-15T14:56:43;17.55;;;9.15;;
33148;SDS011;19506;51.040;3.856;2023-02-15T14:59:19;16.52;;;8.98;;
33148;SDS011;19506;51.040;3.856;2023-02-15T15:06:57;18.02;;;9.23;;
33148;SDS011;19506;51.040;3.856;2023-02-15T15:09:31;16.38;;;9.38;;
33148;SDS011;19506;51.040;3.856;2023-02-15T15:14:47;13.90;;;8.20;;
33148;SDS011;19506;51.040;3.856;2023-02-15T15:25:41;13.23;;;8.38;;
33148;SDS011;19506;51.040;3.856;2023-02-15T15:48:31;17.60;;;9.57;;
33148;SDS011;19506;51.040;3.856;2023-02-15T15:51:00;29.45;;;12.57;;
33148;SDS011;19506;51.040;3.856;2023-02-15T15:53:40;21.92;;;13.32;;
33148;SDS011;19506;51.040;3.856;2023-02-15T15:56:15;37.88;;;14.85;;
33148;SDS011;19506;51.040;3.856;2023-02-15T15:58:47;30.98;;;14.13;;
33148;SDS011;19506;51.040;3.856;2023-02-15T16:01:16;30.77;;;14.82;;
33148;SDS011;19506;51.040;3.856;2023-02-15T16:03:54;39.20;;;15.13;;
33148;SDS011;19506;51.040;3.856;2023-02-15T16:06:26;37.40;;;15.57;;
33148;SDS011;19506;51.040;3.856;2023-02-15T16:08:56;32.92;;;15.90;;
33148;SDS011;19506;51.040;3.856;2023-02-15T16:13:49;27.50;;;14.77;;
33148;SDS011;19506;51.040;3.856;2023-02-15T16:16:20;27.67;;;15.70;;
33148;SDS011;19506;51.040;3.856;2023-02-15T16:18:49;30.60;;;16.77;;
33148;SDS011;19506;51.040;3.856;2023-02-15T16:21:21;34.38;;;16.75;;
33148;SDS011;19506;51.040;3.856;2023-02-15T16:29:35;43.70;;;16.73;;
33148;SDS011;19506;51.040;3.856;2023-02-15T16:34:27;27.10;;;15.23;;
33148;SDS011;19506;51.040;3.856;2023-02-15T16:37:11;27.25;;;14.93;;
33148;SDS011;19506;51.040;3.856;2023-02-15T16:39:40;37.20;;;14.63;;
33148;SDS011;19506;51.040;3.856;2023-02-15T16:42:07;27.90;;;14.38;;
33148;SDS011;19506;51.040;3.856;2023-02-15T16:44:34;32.45;;;15.80;;
33148;SDS011;19506;51.040;3.856;2023-02-15T16:49:26;31.90;;;15.07;;
33148;SDS011;19506;51.040;3.856;2023-02-15T16:52:01;25.13;;;14.65;;
33148;SDS011;19506;51.040;3.856;2023-02-15T16:54:31;35.60;;;16.13;;
33148;SDS011;19506;51.040;3.856;2023-02-15T16:56:58;32.92;;;16.33;;
33148;SDS011;19506;51.040;3.856;2023-02-15T17:01:52;28.08;;;15.48;;
33148;SDS011;19506;51.040;3.856;2023-02-15T17:07:00;32.10;;;17.55;;
33148;SDS011;19506;51.040;3.856;2023-02-15T17:09:30;29.27;;;15.38;;
33148;SDS011;19506;51.040;3.856;2023-02-15T17:11:56;30.88;;;16.23;;
33148;SDS011;19506;51.040;3.856;2023-02-15T17:14:31;33.72;;;17.83;;
33148;SDS011;19506;51.040;3.856;2023-02-15T17:17:05;29.83;;;17.23;;
33148;SDS011;19506;51.040;3.856;2023-02-15T17:19:49;48.47;;;19.75;;
33148;SDS011;19506;51.040;3.856;2023-02-15T17:22:21;39.78;;;22.45;;
33148;SDS011;19506;51.040;3.856;2023-02-15T17:24:50;47.25;;;22.98;;
33148;SDS011;19506;51.040;3.856;2023-02-15T17:27:27;43.28;;;22.73;;
33148;SDS011;19506;51.040;3.856;2023-02-15T17:29:59;43.92;;;24.15;;
33148;SDS011;19506;51.040;3.856;2023-02-15T17:32:28;50.35;;;23.42;;
33148;SDS011;19506;51.040;3.856;2023-02-15T17:40:35;40.40;;;22.48;;
33148;SDS011;19506;51.040;3.856;2023-02-15T17:42:55;37.95;;;21.48;;
33148;SDS011;19506;51.040;3.856;2023-02-15T17:45:24;46.63;;;22.02;;
33148;SDS011;19506;51.040;3.856;2023-02-15T17:47:55;39.20;;;21.73;;
33148;SDS011;19506;51.040;3.856;2023-02-15T17:50:24;39.58;;;20.00;;
33148;SDS011;19506;51.040;3.856;2023-02-15T17:52:52;34.22;;;20.25;;
33148;SDS011;19506;51.040;3.856;2023-02-15T17:55:21;36.00;;;19.92;;
33148;SDS011;19506;51.040;3.856;2023-02-15T17:58:00;37.63;;;20.15;;
33148;SDS011;19506;51.040;3.856;2023-02-15T18:00:27;33.90;;;19.15;;
33148;SDS011;19506;51.040;3.856;2023-02-15T18:03:12;34.60;;;19.40;;
33148;SDS011;19506;51.040;3.856;2023-02-15T18:05:56;28.67;;;17.55;;
33148;SDS011;19506;51.040;3.856;2023-02-15T18:08:41;35.67;;;18.25;;
33148;SDS011;19506;51.040;3.856;2023-02-15T18:11:25;39.53;;;17.98;;
33148;SDS011;19506;51.040;3.856;2023-02-15T18:14:01;40.08;;;17.27;;
33148;SDS011;19506;51.040;3.856;2023-02-15T18:16:31;33.30;;;17.55;;
33148;SDS011;19506;51.040;3.856;2023-02-15T18:19:03;38.20;;;19.25;;
33148;SDS011;19506;51.040;3.856;2023-02-15T18:21:30;32.72;;;17.38;;
33148;SDS011;19506;51.040;3.856;2023-02-15T18:23:57;31.08;;;17.52;;
33148;SDS011;19506;51.040;3.856;2023-02-15T18:28:49;32.15;;;17.27;;
33148;SDS011;19506;51.040;3.856;2023-02-15T18:31:15;35.47;;;16.48;;
33148;SDS011;19506;51.040;3.856;2023-02-15T18:36:20;28.00;;;16.30;;
33148;SDS011;19506;51.040;3.856;2023-02-15T18:38:50;35.22;;;16.95;;
33148;SDS011;19506;51.040;3.856;2023-02-15T18:41:18;36.97;;;18.30;;
33148;SDS011;19506;51.040;3.856;2023-02-15T18:43:45;45.15;;;19.38;;
33148;SDS011;19506;51.040;3.856;2023-02-15T18:46:12;49.70;;;21.08;;
33148;SDS011;19506;51.040;3.856;2023-02-15T18:48:39;41.00;;;19.85;;
33148;SDS011;19506;51.040;3.856;2023-02-15T18:53:44;50.08;;;21.35;;
33148;SDS011;19506;51.040;3.856;2023-02-15T18:56:15;55.22;;;20.38;;
33148;SDS011;19506;51.040;3.856;2023-02-15T18:58:43;47.53;;;20.38;;
33148;SDS011;19506;51.040;3.856;2023-02-15T19:01:12;52.42;;;21.83;;
33148;SDS011;19506;51.040;3.856;2023-02-15T19:03:42;46.85;;;21.23;;
33148;SDS011;19506;51.040;3.856;2023-02-15T19:06:10;43.10;;;19.33;;
33148;SDS011;19506;51.040;3.856;2023-02-15T19:08:37;52.63;;;20.25;;
33148;SDS011;19506;51.040;3.856;2023-02-15T19:13:28;41.42;;;19.52;;
33148;SDS011;19506;51.040;3.856;2023-02-15T19:18:20;37.28;;;18.92;;
33148;SDS011;19506;51.040;3.856;2023-02-15T19:20:45;48.22;;;20.38;;
33148;SDS011;19506;51.040;3.856;2023-02-15T19:23:20;41.80;;;19.25;;
33148;SDS011;19506;51.040;3.856;2023-02-15T19:25:47;43.60;;;19.40;;
33148;SDS011;19506;51.040;3.856;2023-02-15T19:28:18;39.72;;;19.00;;
33148;SDS011;19506;51.040;3.856;2023-02-15T19:30:50;42.78;;;20.40;;
33148;SDS011;19506;51.040;3.856;2023-02-15T19:33:17;51.80;;;18.88;;
33148;SDS011;19506;51.040;3.856;2023-02-15T19:35:45;50.03;;;20.30;;
33148;SDS011;19506;51.040;3.856;2023-02-15T19:38:17;34.80;;;18.52;;
33148;SDS011;19506;51.040;3.856;2023-02-15T19:40:46;45.35;;;19.67;;
33148;SDS011;19506;51.040;3.856;2023-02-15T19:45:42;35.83;;;18.40;;
33148;SDS011;19506;51.040;3.856;2023-02-15T19:50:35;43.53;;;18.75;;
33148;SDS011;19506;51.040;3.856;2023-02-15T19:55:27;39.70;;;16.70;;
33148;SDS011;19506;51.040;3.856;2023-02-15T19:57:56;36.65;;;17.50;;
33148;SDS011;19506;51.040;3.856;2023-02-15T20:00:26;39.47;;;18.15;;
33148;SDS011;19506;51.040;3.856;2023-02-15T20:02:56;36.00;;;18.05;;
33148;SDS011;19506;51.040;3.856;2023-02-15T20:05:23;38.33;;;17.55;;